Time;durP1;ratioP1;P1;durP2;ratioP2;P2;SDS_P1;SDS_P2;PMS_P1;PMS_P2;Temp;Humidity;BMP_temperature;BMP_pressure;BME280_temperature;BME280_humidity;BME280_pressure;Samples;Min_cycle;Max_cycle;Signal;HPM_P1;HPM_P2
2021/01/04 00:01:41;;;;;;;23.02;14.43;;;1.70;99.90;;;;;;5111689;28;20480;-77
2021/01/04 00:07:34;;;;;;;23.95;14.25;;;1.70;99.90;;;;;;5112270;27;20392;-70
2021/01/04 00:10:33;;;;;;;22.25;13.52;;;1.70;99.90;;;;;;5093138;28;20027;-70
2021/01/04 00:13:08;;;;;;;22.23;12.85;;;1.70;99.90;;;;;;5110334;28;20024;-70
2021/01/04 00:15:52;;;;;;;22.20;13.77;;;1.70;99.90;;;;;;5110568;28;20530;-70
2021/01/04 00:18:42;;;;;;;24.05;14.10;;;1.70;99.90;;;;;;5109971;28;20477;-70
2021/01/04 00:21:32;;;;;;;24.65;14.20;;;1.70;99.90;;;;;;5111456;28;20073;-70
2021/01/04 00:24:15;;;;;;;25.35;14.65;;;1.70;99.90;;;;;;5109906;28;20474;-70
2021/01/04 00:26:52;;;;;;;18.38;11.05;;;1.70;99.90;;;;;;5111585;28;20019;-70
2021/01/04 00:29:20;;;;;;;25.80;14.88;;;1.70;99.90;;;;;;5109787;28;20032;-70
2021/01/04 00:31:51;;;;;;;24.88;15.02;;;1.70;99.90;;;;;;5092791;28;20389;-70
2021/01/04 00:34:23;;;;;;;24.63;15.10;;;1.70;99.90;;;;;;5110283;28;20016;-70
2021/01/04 00:37:12;;;;;;;25.00;15.30;;;1.70;99.90;;;;;;5109659;28;20035;-70
2021/01/04 00:40:00;;;;;;;27.30;15.35;;;1.70;99.90;;;;;;5110896;28;20027;-70
2021/01/04 00:42:51;;;;;;;24.63;14.73;;;1.70;99.90;;;;;;5111016;28;20076;-70
2021/01/04 00:45:39;;;;;;;26.90;14.38;;;1.80;99.90;;;;;;5109945;28;20051;-70
2021/01/04 00:48:35;;;;;;;26.90;15.10;;;1.70;99.90;;;;;;5110642;28;20030;-70
2021/01/04 00:51:29;;;;;;;25.33;15.00;;;1.70;99.90;;;;;;5110575;28;20069;-70
2021/01/04 00:53:56;;;;;;;25.63;15.32;;;1.70;99.90;;;;;;5092793;28;20028;-70
2021/01/04 00:56:44;;;;;;;30.92;16.40;;;1.60;99.90;;;;;;5111077;28;20119;-70
2021/01/04 00:59:30;;;;;;;27.63;16.00;;;1.60;99.90;;;;;;5111001;28;20026;-70
2021/01/04 01:02:21;;;;;;;28.45;16.13;;;1.60;99.90;;;;;;5110668;28;20419;-70
2021/01/04 01:05:01;;;;;;;30.67;15.07;;;1.60;99.90;;;;;;5094567;28;20126;-70
2021/01/04 01:08:05;;;;;;;29.02;16.52;;;1.60;99.90;;;;;;5109020;28;20384;-70
2021/01/04 01:10:37;;;;;;;26.13;15.40;;;1.60;99.90;;;;;;5109378;28;20024;-70
2021/01/04 01:13:21;;;;;;;27.45;15.05;;;1.60;99.90;;;;;;5110436;28;20377;-70
2021/01/04 01:16:03;;;;;;;26.30;15.23;;;1.60;99.90;;;;;;5110661;28;20111;-70
2021/01/04 01:18:50;;;;;;;24.77;14.20;;;1.60;99.90;;;;;;5096700;28;20520;-70
2021/01/04 01:21:16;;;;;;;25.52;14.02;;;1.60;99.90;;;;;;5096508;28;20028;-70
2021/01/04 01:23:42;;;;;;;23.45;13.77;;;1.60;99.90;;;;;;5096916;28;20034;-70
2021/01/04 01:26:27;;;;;;;23.98;14.13;;;1.60;99.90;;;;;;5095098;28;20024;-69
2021/01/04 01:29:21;;;;;;;24.75;14.20;;;1.60;99.90;;;;;;5096858;28;20092;-70
2021/01/04 01:32:21;;;;;;;22.92;13.98;;;1.60;99.90;;;;;;5096359;28;20466;-70
2021/01/04 01:40:51;;;;;;;25.42;14.07;;;1.60;99.90;;;;;;5112521;27;20351;-75
2021/01/04 01:43:34;;;;;;;24.85;14.52;;;1.60;99.90;;;;;;5112126;28;20484;-76
2021/01/04 01:46:11;;;;;;;;;;;1.60;99.90;;;;;;5112707;28;20119;-76
2021/01/04 01:52:16;;;;;;;24.52;14.35;;;1.60;99.90;;;;;;5112122;27;20351;-71
2021/01/04 01:55:12;;;;;;;26.45;15.15;;;1.60;99.90;;;;;;5111243;28;20027;-71
2021/01/04 01:58:08;;;;;;;22.10;13.10;;;1.50;99.90;;;;;;5110439;28;20043;-71
2021/01/04 02:00:45;;;;;;;23.90;14.55;;;1.60;99.90;;;;;;5111747;28;20031;-71
2021/01/04 02:03:34;;;;;;;23.05;13.98;;;1.60;99.90;;;;;;5109947;28;20081;-71
2021/01/04 02:06:33;;;;;;;24.80;14.65;;;1.60;99.90;;;;;;5093164;28;20034;-71
2021/01/04 02:09:06;;;;;;;23.95;13.98;;;1.60;99.90;;;;;;5111079;28;20027;-71
2021/01/04 02:11:47;;;;;;;25.48;14.20;;;1.50;99.90;;;;;;5111265;28;20026;-71
2021/01/04 02:14:30;;;;;;;26.60;15.10;;;1.60;99.90;;;;;;5109740;28;20024;-71
2021/01/04 02:17:35;;;;;;;25.90;14.43;;;1.60;99.90;;;;;;5093398;28;20020;-71
2021/01/04 02:20:28;;;;;;;24.45;14.38;;;1.60;99.90;;;;;;5110820;28;20024;-71
2021/01/04 02:23:21;;;;;;;23.58;12.20;;;1.60;99.90;;;;;;5110732;28;20030;-70
2021/01/04 02:25:48;;;;;;;25.55;14.40;;;1.60;99.90;;;;;;5109819;28;20035;-71
2021/01/04 02:28:20;;;;;;;26.38;14.63;;;1.60;99.90;;;;;;5110089;28;20495;-71
2021/01/04 02:30:47;;;;;;;23.55;13.50;;;1.60;99.90;;;;;;5110706;28;20028;-71
2021/01/04 02:33:16;;;;;;;24.48;13.88;;;1.60;99.90;;;;;;5093222;28;20369;-71
2021/01/04 02:35:42;;;;;;;22.90;13.52;;;1.60;99.90;;;;;;5092446;28;20051;-71
2021/01/04 02:38:09;;;;;;;20.52;13.07;;;1.60;99.90;;;;;;5110515;28;20110;-71
2021/01/04 02:40:35;;;;;;;23.38;13.75;;;1.60;99.90;;;;;;5111075;28;20070;-71
2021/01/04 02:43:01;;;;;;;21.60;13.02;;;1.60;99.90;;;;;;5111066;28;20055;-71
2021/01/04 02:45:29;;;;;;;23.55;12.88;;;1.60;99.90;;;;;;5109802;28;20023;-70
2021/01/04 02:48:09;;;;;;;22.92;13.27;;;1.70;99.90;;;;;;5110960;28;20067;-71
2021/01/04 02:50:59;;;;;;;16.98;11.20;;;1.60;99.90;;;;;;5110284;28;20135;-71
2021/01/04 02:53:51;;;;;;;19.48;12.15;;;1.70;99.90;;;;;;5110740;28;20020;-71
2021/01/04 02:56:37;;;;;;;20.98;12.07;;;1.60;99.90;;;;;;5110803;28;20020;-70
2021/01/04 02:59:43;;;;;;;18.33;11.95;;;1.60;99.90;;;;;;5110702;28;20020;-70
2021/01/04 03:02:34;;;;;;;19.38;12.98;;;1.70;99.90;;;;;;5100926;28;20032;-71
2021/01/04 03:04:59;;;;;;;20.05;12.75;;;1.60;99.90;;;;;;5095195;28;20031;-71
2021/01/04 03:07:30;;;;;;;18.70;11.15;;;1.70;99.90;;;;;;5095571;28;20028;-71
2021/01/04 03:09:58;;;;;;;18.02;11.48;;;1.70;99.90;;;;;;5096867;28;20115;-71
2021/01/04 03:12:31;;;;;;;20.27;12.40;;;1.70;99.90;;;;;;5096621;28;20359;-71
2021/01/04 03:15:07;;;;;;;;;;;1.70;99.90;;;;;;5095853;28;20089;-70
2021/01/04 03:17:47;;;;;;;19.60;11.90;;;1.70;99.90;;;;;;5095354;28;19904;-71
2021/01/04 03:20:17;;;;;;;19.98;11.93;;;1.70;99.90;;;;;;5096766;28;20016;-71
2021/01/04 03:22:46;;;;;;;18.75;11.90;;;1.60;99.90;;;;;;5096678;28;20028;-71
2021/01/04 03:25:18;;;;;;;19.33;12.10;;;1.70;99.90;;;;;;5096660;28;20052;-70
2021/01/04 03:27:44;;;;;;;18.50;11.48;;;1.70;99.90;;;;;;5094868;28;20036;-71
2021/01/04 03:30:10;;;;;;;20.10;11.85;;;1.70;99.90;;;;;;5094947;28;20036;-71
2021/01/04 03:32:37;;;;;;;17.45;12.07;;;1.70;99.90;;;;;;5096232;28;20020;-71
2021/01/04 03:35:04;;;;;;;19.35;11.52;;;1.70;99.90;;;;;;5095887;28;20022;-71
2021/01/04 03:37:29;;;;;;;18.23;11.98;;;1.70;99.90;;;;;;5094856;28;20051;-71
2021/01/04 03:39:55;;;;;;;20.35;12.65;;;1.70;99.90;;;;;;5094534;28;20067;-71
2021/01/04 03:42:20;;;;;;;20.73;11.95;;;1.70;99.90;;;;;;5095704;28;20024;-71
2021/01/04 03:44:46;;;;;;;20.35;13.07;;;1.70;99.90;;;;;;5095092;28;20035;-71
2021/01/04 03:47:11;;;;;;;19.60;12.10;;;1.70;99.90;;;;;;5096208;28;20077;-71
2021/01/04 03:49:37;;;;;;;23.42;13.68;;;1.70;99.90;;;;;;5095291;28;20028;-71
2021/01/04 03:52:03;;;;;;;20.30;12.68;;;1.70;99.90;;;;;;5095121;28;20020;-70
2021/01/04 03:54:29;;;;;;;23.08;13.93;;;1.70;99.90;;;;;;5096083;28;20031;-70
2021/01/04 03:56:54;;;;;;;21.30;13.18;;;1.70;99.90;;;;;;5095966;28;20020;-71
2021/01/04 03:59:21;;;;;;;21.73;13.25;;;1.70;99.90;;;;;;5094709;28;20216;-71
2021/01/04 04:01:50;;;;;;;20.02;12.82;;;1.70;99.90;;;;;;5094392;28;20076;-71
2021/01/04 04:04:16;;;;;;;22.58;13.73;;;1.70;99.90;;;;;;5094726;28;20028;-71
2021/01/04 04:06:42;;;;;;;22.98;14.35;;;1.70;99.90;;;;;;5095812;28;20030;-71
2021/01/04 04:09:12;;;;;;;21.75;13.88;;;1.70;99.90;;;;;;5093945;28;20027;-70
2021/01/04 04:11:38;;;;;;;22.13;13.20;;;1.70;99.90;;;;;;5095697;28;20024;-71
2021/01/04 04:14:04;;;;;;;24.33;14.50;;;1.70;99.90;;;;;;5094385;28;20116;-70
2021/01/04 04:16:30;;;;;;;23.55;13.95;;;1.70;99.90;;;;;;5077083;28;20028;-71
2021/01/04 04:18:56;;;;;;;19.73;11.77;;;1.70;99.90;;;;;;5095309;28;20024;-70
2021/01/04 04:21:21;;;;;;;22.35;12.93;;;1.70;99.90;;;;;;5094968;28;20046;-70
2021/01/04 04:23:47;;;;;;;20.70;13.00;;;1.70;99.90;;;;;;5094064;28;20032;-71
2021/01/04 04:26:19;;;;;;;21.42;12.45;;;1.80;99.90;;;;;;5094320;28;20020;-71
2021/01/04 04:28:45;;;;;;;20.08;12.18;;;1.80;99.90;;;;;;5095391;28;20085;-71
2021/01/04 04:31:12;;;;;;;20.45;13.27;;;1.70;99.90;;;;;;5094732;28;20027;-71
2021/01/04 04:33:39;;;;;;;21.85;12.75;;;1.70;99.90;;;;;;5095354;28;20111;-70
2021/01/04 04:36:05;;;;;;;21.08;12.65;;;1.70;99.90;;;;;;5093544;28;20073;-71
2021/01/04 04:38:31;;;;;;;23.02;13.60;;;1.70;99.90;;;;;;5094964;28;20024;-70
2021/01/04 04:40:56;;;;;;;19.85;12.30;;;1.80;99.90;;;;;;5094899;28;20104;-71
2021/01/04 04:43:45;;;;;;;21.13;12.82;;;1.80;99.90;;;;;;5095124;28;20032;-71
2021/01/04 04:46:31;;;;;;;20.90;12.82;;;1.80;99.90;;;;;;5094457;28;20068;-71
2021/01/04 04:49:04;;;;;;;20.30;11.48;;;1.80;99.90;;;;;;5095054;28;20036;-71
2021/01/04 04:52:00;;;;;;;19.30;12.20;;;1.80;99.90;;;;;;5093138;28;20405;-71
2021/01/04 04:54:44;;;;;;;19.77;12.48;;;1.80;99.90;;;;;;5094301;28;20026;-71
2021/01/04 04:57:32;;;;;;;21.50;12.90;;;1.80;99.90;;;;;;5077044;28;20027;-71
2021/01/04 05:00:38;;;;;;;21.58;12.73;;;1.80;99.90;;;;;;5094815;28;20035;-71
2021/01/04 05:03:17;;;;;;;19.95;12.10;;;1.80;99.90;;;;;;5093897;28;20038;-71
2021/01/04 05:08:45;;;;;;;21.38;11.85;;;1.80;99.90;;;;;;5112249;27;20347;-71
2021/01/04 05:11:12;;;;;;;22.67;13.43;;;1.80;99.90;;;;;;5111402;28;20370;-71
2021/01/04 05:13:40;;;;;;;21.23;12.88;;;1.80;99.90;;;;;;5110367;28;20023;-71
2021/01/04 05:16:15;;;;;;;29.30;12.85;;;1.80;99.90;;;;;;5111232;28;20422;-70
2021/01/04 05:19:09;;;;;;;22.90;13.25;;;1.80;99.90;;;;;;5110559;28;20462;-71
2021/01/04 05:22:05;;;;;;;23.05;13.80;;;1.80;99.90;;;;;;5111109;28;20532;-71
2021/01/04 05:24:42;;;;;;;21.98;13.70;;;1.80;99.90;;;;;;5111034;28;20031;-71
2021/01/04 05:27:35;;;;;;;24.45;14.35;;;1.80;99.90;;;;;;5110112;28;20089;-71
2021/01/04 05:30:26;;;;;;;26.35;14.82;;;1.80;99.90;;;;;;5110915;28;20023;-71
2021/01/04 05:33:21;;;;;;;26.27;14.75;;;1.80;99.90;;;;;;5110939;28;20020;-71
2021/01/04 05:35:48;;;;;;;24.02;13.75;;;1.80;99.90;;;;;;5110847;28;20020;-71
2021/01/04 05:38:25;;;;;;;25.10;14.57;;;1.80;99.90;;;;;;5109558;28;20032;-71
2021/01/04 05:41:23;;;;;;;25.63;15.00;;;1.80;99.90;;;;;;5109834;28;20038;-71
2021/01/04 05:44:02;;;;;;;26.80;14.80;;;1.80;99.90;;;;;;5109692;28;20048;-71
2021/01/04 05:46:42;;;;;;;23.40;13.95;;;1.80;99.90;;;;;;5110116;28;20338;-71
2021/01/04 05:52:08;;;;;;;23.05;13.68;;;1.80;99.90;;;;;;5051409;27;20421;-74
2021/01/04 05:54:36;;;;;;;23.35;14.32;;;1.80;99.90;;;;;;5051426;28;20037;-75
2021/01/04 05:57:07;;;;;;;23.33;13.43;;;1.80;99.90;;;;;;5051376;28;20029;-74
2021/01/04 05:59:32;;;;;;;24.77;14.32;;;1.80;99.90;;;;;;5049926;28;20033;-74
2021/01/04 06:02:04;;;;;;;25.13;14.77;;;1.80;99.90;;;;;;5051284;28;20413;-75
2021/01/04 06:04:30;;;;;;;25.27;15.23;;;1.80;99.90;;;;;;5050685;28;20052;-75
2021/01/04 06:07:00;;;;;;;24.23;14.50;;;1.80;99.90;;;;;;5051343;28;20451;-74
2021/01/04 06:09:26;;;;;;;23.25;13.23;;;1.80;99.90;;;;;;5051215;28;20053;-75
2021/01/04 06:11:57;;;;;;;24.35;14.27;;;1.90;99.90;;;;;;5066493;28;20032;-74
2021/01/04 06:14:25;;;;;;;22.38;13.23;;;1.80;99.90;;;;;;5051257;28;20021;-74
2021/01/04 06:17:02;;;;;;;22.52;13.15;;;1.90;99.90;;;;;;5051002;28;20048;-74
2021/01/04 06:19:32;;;;;;;22.48;12.90;;;1.90;99.90;;;;;;5051032;28;20109;-75
2021/01/04 06:21:58;;;;;;;25.58;13.77;;;1.80;99.90;;;;;;5050918;28;20105;-75
2021/01/04 06:24:30;;;;;;;23.40;14.07;;;1.80;99.90;;;;;;5065755;28;20076;-76
2021/01/04 06:27:16;;;;;;;23.00;13.93;;;1.80;99.90;;;;;;5050839;28;20014;-76
2021/01/04 06:29:46;;;;;;;22.58;13.18;;;1.80;99.90;;;;;;5050450;28;20025;-76
2021/01/04 06:32:31;;;;;;;22.85;12.65;;;1.80;99.90;;;;;;5050707;28;20070;-75
2021/01/04 06:35:04;;;;;;;23.88;13.00;;;1.80;99.90;;;;;;5049016;28;20021;-75
2021/01/04 06:37:32;;;;;;;21.10;12.82;;;1.80;99.90;;;;;;5065454;28;20029;-75
2021/01/04 06:40:05;;;;;;;22.52;13.43;;;1.80;99.90;;;;;;5050025;28;20025;-75
2021/01/04 06:42:38;;;;;;;20.95;13.15;;;1.80;99.90;;;;;;5050611;28;20414;-75
2021/01/04 06:45:41;;;;;;;24.08;13.07;;;1.80;99.90;;;;;;5065518;28;20444;-75
2021/01/04 06:48:13;;;;;;;24.80;13.95;;;1.80;99.90;;;;;;5050465;28;20021;-75
2021/01/04 06:51:12;;;;;;;25.20;14.32;;;1.80;99.90;;;;;;5049948;28;20472;-75
2021/01/04 06:54:07;;;;;;;22.23;12.52;;;1.80;99.90;;;;;;5049746;28;20017;-75
2021/01/04 06:59:42;;;;;;;25.35;14.20;;;1.80;99.90;;;;;;5099797;27;20363;-69
2021/01/04 07:02:26;;;;;;;25.23;13.75;;;1.80;99.90;;;;;;5108402;28;20030;-69
2021/01/04 07:05:32;;;;;;;23.73;13.90;;;1.70;99.90;;;;;;5101292;28;20103;-69
2021/01/04 07:11:16;;;;;;;26.92;14.07;;;1.70;99.90;;;;;;5108382;27;20371;-75
2021/01/04 07:14:04;;;;;;;28.20;14.63;;;1.60;99.90;;;;;;5077373;28;20028;-75
2021/01/04 07:17:05;;;;;;;24.05;13.77;;;1.60;99.90;;;;;;5106160;28;20542;-75
2021/01/04 07:19:57;;;;;;;26.83;14.50;;;1.60;99.90;;;;;;5090680;28;20089;-75
2021/01/04 07:22:55;;;;;;;26.15;14.38;;;1.60;99.90;;;;;;5089269;28;20063;-76
2021/01/04 07:25:33;;;;;;;28.80;14.65;;;1.60;99.90;;;;;;5090283;28;20024;-76
2021/01/04 07:28:34;;;;;;;26.88;14.73;;;1.60;99.90;;;;;;5089796;28;20024;-74
2021/01/04 07:31:06;;;;;;;27.77;14.25;;;1.50;99.90;;;;;;5081267;28;20078;-75
2021/01/04 07:33:41;;;;;;;28.80;15.35;;;1.50;99.90;;;;;;5089233;28;20033;-75
2021/01/04 07:36:30;;;;;;;30.02;15.88;;;1.50;99.90;;;;;;5090618;28;20527;-75
2021/01/04 07:39:35;;;;;;;31.45;15.45;;;1.50;99.90;;;;;;5090036;28;20077;-76
2021/01/04 07:42:31;;;;;;;26.15;14.13;;;1.50;99.90;;;;;;5089505;28;20021;-76
2021/01/04 07:45:28;;;;;;;33.13;15.50;;;1.50;99.90;;;;;;5089895;28;20103;-76
2021/01/04 07:48:32;;;;;;;32.05;16.02;;;1.50;99.90;;;;;;5090183;28;20107;-76
2021/01/04 07:51:34;;;;;;;29.17;14.40;;;1.50;99.90;;;;;;5090004;28;20123;-76
2021/01/04 07:54:35;;;;;;;29.15;15.30;;;1.50;99.90;;;;;;5069600;28;20052;-76
2021/01/04 07:57:29;;;;;;;29.95;15.55;;;1.50;99.90;;;;;;5073380;28;20124;-76
2021/01/04 08:03:17;;;;;;;35.65;17.15;;;1.50;99.90;;;;;;5090175;27;20383;-71
2021/01/04 08:06:13;;;;;;;36.28;17.67;;;1.50;99.90;;;;;;5090338;28;20032;-71
2021/01/04 08:08:46;;;;;;;38.35;17.52;;;1.50;99.90;;;;;;5087985;28;20370;-71
2021/01/04 08:11:51;;;;;;;33.70;16.95;;;1.50;99.90;;;;;;5089455;28;20027;-71
2021/01/04 08:17:36;;;;;;;33.85;16.38;;;1.60;99.90;;;;;;5090640;27;20364;-75
2021/01/04 08:20:04;;;;;;;32.97;16.70;;;1.50;99.90;;;;;;5090639;28;20073;-75
2021/01/04 08:23:08;;;;;;;33.55;16.70;;;1.50;99.90;;;;;;5070181;28;20031;-75
2021/01/04 08:28:37;;;;;;;33.05;17.27;;;1.50;99.90;;;;;;5111479;27;20347;-70
2021/01/04 08:31:15;;;;;;;35.92;17.08;;;1.50;99.90;;;;;;5110281;28;20024;-70
2021/01/04 08:33:49;;;;;;;34.38;16.92;;;1.60;99.90;;;;;;5090441;28;20458;-70
2021/01/04 08:36:36;;;;;;;32.70;16.95;;;1.60;99.90;;;;;;5098993;28;20024;-70
2021/01/04 08:39:24;;;;;;;37.50;17.95;;;1.60;99.90;;;;;;5109047;28;20032;-70
2021/01/04 08:42:05;;;;;;;36.75;18.23;;;1.50;99.90;;;;;;5110415;28;20053;-70
2021/01/04 08:44:33;;;;;;;34.33;17.75;;;1.60;99.90;;;;;;5110744;28;20027;-70
2021/01/04 08:47:09;;;;;;;35.58;17.58;;;1.60;99.90;;;;;;5095286;28;20423;-70
2021/01/04 08:49:45;;;;;;;34.63;18.08;;;1.60;99.90;;;;;;5090383;28;20025;-70
2021/01/04 08:52:16;;;;;;;37.63;18.38;;;1.60;99.90;;;;;;5090053;28;20436;-70
2021/01/04 08:54:42;;;;;;;34.92;17.73;;;1.60;99.90;;;;;;5121655;28;20074;-70
2021/01/04 08:57:17;;;;;;;36.88;18.00;;;1.70;99.90;;;;;;5093404;28;20028;-70
2021/01/04 09:00:02;;;;;;;36.60;18.58;;;1.70;99.90;;;;;;5089089;28;20367;-70
2021/01/04 09:02:39;;;;;;;37.55;18.67;;;1.70;99.90;;;;;;5105633;28;20032;-70
2021/01/04 09:05:08;;;;;;;37.42;18.27;;;1.70;99.90;;;;;;5092103;28;20039;-70
2021/01/04 09:07:46;;;;;;;30.30;16.55;;;1.70;99.90;;;;;;5094038;28;20048;-70
2021/01/04 09:10:19;;;;;;;36.72;18.17;;;1.80;99.90;;;;;;5071678;28;20028;-70
2021/01/04 09:12:47;;;;;;;37.70;18.83;;;1.80;99.90;;;;;;5105321;28;20042;-70
2021/01/04 09:15:28;;;;;;;33.05;17.35;;;1.90;99.90;;;;;;5094848;28;20028;-70
2021/01/04 09:20:52;;;;;;;38.05;19.13;;;1.90;99.90;;;;;;5090157;28;20409;-76
2021/01/04 09:26:04;;;;;;;33.75;17.58;;;2.00;99.90;;;;;;5070722;28;20373;-71
2021/01/04 09:28:38;;;;;;;32.88;16.58;;;2.00;99.90;;;;;;5070231;28;20029;-71
2021/01/04 09:31:04;;;;;;;35.95;18.52;;;2.00;99.90;;;;;;5051925;28;20035;-71
2021/01/04 09:33:30;;;;;;;35.47;18.25;;;2.10;99.90;;;;;;5066936;28;21006;-71
2021/01/04 09:36:05;;;;;;;32.67;17.48;;;2.10;99.90;;;;;;5068187;28;20107;-71
2021/01/04 09:38:31;;;;;;;36.20;18.23;;;2.10;99.90;;;;;;5051891;28;20021;-71
2021/01/04 09:41:02;;;;;;;37.15;18.35;;;2.10;99.90;;;;;;5051859;28;20476;-71
2021/01/04 09:43:31;;;;;;;42.10;18.95;;;2.20;99.90;;;;;;5051880;28;20025;-71
2021/01/04 09:46:17;;;;;;;37.53;18.33;;;2.20;99.90;;;;;;5036127;28;20086;-71
2021/01/04 09:49:02;;;;;;;32.92;16.80;;;2.30;99.90;;;;;;5069396;28;20017;-72
2021/01/04 09:51:48;;;;;;;34.50;17.77;;;2.40;99.90;;;;;;5051918;28;20071;-71
2021/01/04 09:54:35;;;;;;;34.08;18.50;;;2.40;99.90;;;;;;5051182;28;20113;-72
2021/01/04 09:57:02;;;;;;;34.08;17.00;;;2.40;99.90;;;;;;5069471;28;20146;-71
2021/01/04 09:59:28;;;;;;;35.83;18.10;;;2.50;99.90;;;;;;5068618;28;20036;-71
2021/01/04 10:01:58;;;;;;;35.45;17.92;;;2.60;99.90;;;;;;5051615;28;20017;-72
2021/01/04 10:04:35;;;;;;;31.77;18.02;;;2.70;99.90;;;;;;5069308;28;20028;-71
2021/01/04 10:07:04;;;;;;;34.90;17.80;;;2.70;99.90;;;;;;5068693;28;20047;-72
2021/01/04 10:09:34;;;;;;;34.03;17.80;;;2.90;99.90;;;;;;5048383;28;20037;-72
2021/01/04 10:12:02;;;;;;;29.92;17.02;;;2.90;99.90;;;;;;5048856;28;20032;-71
2021/01/04 10:14:29;;;;;;;33.28;17.50;;;2.80;99.90;;;;;;5068733;28;20048;-72
2021/01/04 10:16:56;;;;;;;38.22;20.58;;;2.80;99.90;;;;;;5069263;28;20033;-72
2021/01/04 10:19:32;;;;;;;36.47;18.85;;;2.80;99.90;;;;;;5051338;28;20033;-71
2021/01/04 10:22:12;;;;;;;38.40;19.05;;;2.70;99.90;;;;;;5067924;28;20055;-72
2021/01/04 10:27:27;;;;;;;37.33;23.97;;;2.80;99.90;;;;;;5110079;27;20390;-75
2021/01/04 10:29:55;;;;;;;31.30;18.42;;;2.80;99.90;;;;;;5110238;28;20016;-75
2021/01/04 10:32:32;;;;;;;36.28;18.27;;;2.70;99.90;;;;;;5110224;28;20016;-75
2021/01/04 10:34:58;;;;;;;31.58;17.92;;;2.70;99.90;;;;;;5095213;28;20480;-76
2021/01/04 10:37:40;;;;;;;37.38;19.05;;;2.70;99.90;;;;;;5090651;28;20028;-76
2021/01/04 10:40:09;;;;;;;36.92;17.83;;;2.60;99.90;;;;;;5091495;28;20087;-76
2021/01/04 10:42:37;;;;;;;38.13;19.23;;;2.70;99.90;;;;;;5091181;28;20016;-75
2021/01/04 10:45:08;;;;;;;35.22;17.17;;;2.60;99.90;;;;;;5089059;28;20028;-75
2021/01/04 10:47:57;;;;;;;33.90;17.70;;;2.60;99.90;;;;;;5090489;28;20016;-75
2021/01/04 10:50:36;;;;;;;35.28;19.00;;;2.70;99.90;;;;;;5087905;28;20020;-75
2021/01/04 10:53:07;;;;;;;36.17;19.10;;;2.70;99.90;;;;;;5103802;28;20095;-75
2021/01/04 10:55:37;;;;;;;33.42;19.00;;;2.70;99.90;;;;;;5110788;28;20012;-77
2021/01/04 10:58:18;;;;;;;36.47;19.00;;;2.60;99.90;;;;;;5092599;28;20032;-77
2021/01/04 11:00:51;;;;;;;34.20;18.30;;;2.60;99.90;;;;;;5090119;28;20052;-76
2021/01/04 11:03:17;;;;;;;37.33;19.92;;;2.50;99.90;;;;;;5109960;28;20015;-75
2021/01/04 11:05:48;;;;;;;33.60;18.52;;;2.50;99.90;;;;;;5110464;28;20020;-75
2021/01/04 11:11:23;;;;;;;37.33;20.23;;;2.60;99.90;;;;;;5109751;27;20108;-71
2021/01/04 11:13:49;;;;;;;41.42;19.13;;;2.60;99.90;;;;;;5105674;28;20031;-71
2021/01/04 11:16:18;;;;;;;36.00;18.35;;;2.60;99.90;;;;;;5118677;28;20453;-71
2021/01/04 11:18:52;;;;;;;33.67;17.88;;;2.60;99.90;;;;;;5089434;28;20012;-71
2021/01/04 11:21:20;;;;;;;36.22;18.75;;;2.60;99.90;;;;;;5098239;28;20065;-71
2021/01/04 11:23:45;;;;;;;35.25;17.83;;;2.70;99.90;;;;;;5092408;28;20027;-71
2021/01/04 11:26:11;;;;;;;34.70;18.40;;;2.70;99.90;;;;;;5105837;28;20024;-71
2021/01/04 11:28:37;;;;;;;40.72;18.42;;;2.80;99.90;;;;;;5110786;28;20365;-71
2021/01/04 11:31:03;;;;;;;34.42;19.38;;;2.90;99.90;;;;;;5107376;28;20468;-71
2021/01/04 11:33:29;;;;;;;36.17;19.15;;;2.80;99.90;;;;;;5110047;28;20038;-71
2021/01/04 11:35:55;;;;;;;35.05;18.50;;;2.80;99.90;;;;;;5105624;28;20033;-72
2021/01/04 11:38:21;;;;;;;34.72;18.05;;;2.90;99.90;;;;;;5092590;28;20040;-71
2021/01/04 11:40:46;;;;;;;34.00;17.90;;;2.90;99.90;;;;;;5104043;28;20445;-71
2021/01/04 11:43:13;;;;;;;37.95;19.55;;;2.80;99.90;;;;;;5099519;28;20020;-72
2021/01/04 11:45:39;;;;;;;37.70;19.13;;;2.80;99.90;;;;;;5094185;28;20038;-72
2021/01/04 11:48:06;;;;;;;31.67;17.85;;;2.90;99.90;;;;;;5108820;28;20053;-71
2021/01/04 11:50:31;;;;;;;34.83;19.42;;;2.80;99.90;;;;;;5103705;28;20043;-71
2021/01/04 11:52:57;;;;;;;32.33;18.30;;;2.80;99.90;;;;;;5088739;28;20528;-71
2021/01/04 11:55:23;;;;;;;39.75;20.15;;;2.90;99.90;;;;;;5092725;28;20028;-72
2021/01/04 11:57:49;;;;;;;34.88;18.65;;;2.90;99.90;;;;;;5091456;28;20059;-72
2021/01/04 12:00:15;;;;;;;33.42;17.55;;;2.90;99.90;;;;;;5108420;28;20051;-72
2021/01/04 12:02:41;;;;;;;35.45;18.88;;;2.90;99.90;;;;;;5088553;28;20020;-72
2021/01/04 12:05:08;;;;;;;33.13;18.45;;;2.90;99.90;;;;;;5089479;28;20023;-72
2021/01/04 12:07:34;;;;;;;37.88;20.60;;;2.90;99.90;;;;;;5110277;28;20035;-72
2021/01/04 12:09:59;;;;;;;36.17;19.45;;;2.90;99.90;;;;;;5113853;28;20048;-72
2021/01/04 12:12:25;;;;;;;39.70;21.17;;;2.80;99.90;;;;;;5088145;28;20128;-72
2021/01/04 12:14:52;;;;;;;38.30;20.35;;;2.80;99.90;;;;;;5104148;28;20016;-72
2021/01/04 12:17:17;;;;;;;36.95;20.00;;;2.80;99.90;;;;;;5108730;28;20418;-72
2021/01/04 12:19:43;;;;;;;31.65;18.85;;;2.80;99.90;;;;;;5095612;28;20124;-72
2021/01/04 12:22:11;;;;;;;36.42;19.92;;;2.90;99.90;;;;;;5075907;28;20025;-72
2021/01/04 12:24:38;;;;;;;37.65;20.23;;;2.90;99.90;;;;;;5074204;28;20049;-72
2021/01/04 12:27:06;;;;;;;32.65;18.90;;;2.90;99.90;;;;;;5074516;28;20346;-72
2021/01/04 12:29:33;;;;;;;35.00;19.45;;;2.80;99.90;;;;;;5084066;28;20400;-71
2021/01/04 12:31:59;;;;;;;34.40;19.55;;;2.90;99.90;;;;;;5094097;28;20027;-71
2021/01/04 12:34:25;;;;;;;32.67;18.30;;;2.80;99.90;;;;;;5087351;28;20021;-72
2021/01/04 12:36:50;;;;;;;35.10;19.00;;;2.80;99.90;;;;;;5077785;28;20039;-72
2021/01/04 12:39:16;;;;;;;33.28;18.85;;;2.90;99.90;;;;;;5095599;28;20054;-72
2021/01/04 12:41:42;;;;;;;37.67;19.70;;;2.90;99.90;;;;;;5093774;28;20039;-72
2021/01/04 12:44:09;;;;;;;35.53;18.88;;;2.80;99.90;;;;;;5075959;28;20107;-72
2021/01/04 12:46:41;;;;;;;33.85;19.00;;;2.90;99.90;;;;;;5074445;28;20366;-71
2021/01/04 12:49:07;;;;;;;33.45;18.95;;;2.80;99.90;;;;;;5095866;28;20093;-71
2021/01/04 12:51:32;;;;;;;42.42;19.42;;;2.90;99.90;;;;;;5095883;28;20404;-72
2021/01/04 12:53:58;;;;;;;32.28;18.88;;;2.90;99.90;;;;;;5074014;28;20020;-71
2021/01/04 12:56:23;;;;;;;33.35;19.23;;;2.90;99.90;;;;;;5075312;28;20028;-71
2021/01/04 12:58:49;;;;;;;33.78;19.17;;;2.90;99.90;;;;;;5088644;28;20393;-72
2021/01/04 13:01:17;;;;;;;32.17;18.05;;;2.90;99.90;;;;;;5095188;28;20028;-71
2021/01/04 13:03:43;;;;;;;29.98;17.00;;;2.90;99.90;;;;;;5094695;28;20039;-71
2021/01/04 13:06:09;;;;;;;26.27;15.40;;;2.90;99.90;;;;;;5080045;28;20378;-71
2021/01/04 13:08:38;;;;;;;24.75;15.05;;;2.90;99.90;;;;;;5073583;28;20020;-72
2021/01/04 13:11:03;;;;;;;25.90;16.10;;;2.90;99.90;;;;;;5086975;28;20330;-71
2021/01/04 13:13:29;;;;;;;21.08;13.45;;;2.90;99.90;;;;;;5094020;28;20103;-71
2021/01/04 13:15:54;;;;;;;22.48;14.18;;;2.90;99.90;;;;;;5083491;28;20103;-71
2021/01/04 13:18:20;;;;;;;22.95;14.93;;;2.90;99.90;;;;;;5077328;28;20099;-71
2021/01/04 13:20:45;;;;;;;25.23;14.98;;;2.90;99.90;;;;;;5072081;28;20047;-71
2021/01/04 13:23:11;;;;;;;21.00;13.77;;;2.90;99.90;;;;;;5072443;28;20020;-71
2021/01/04 13:25:36;;;;;;;19.63;12.90;;;2.80;99.90;;;;;;5074723;28;20020;-71
2021/01/04 13:28:03;;;;;;;20.85;13.43;;;2.80;99.90;;;;;;5074333;28;20059;-71
2021/01/04 13:30:29;;;;;;;19.98;12.75;;;2.70;99.90;;;;;;5072958;28;20017;-71
2021/01/04 13:32:55;;;;;;;22.45;13.35;;;2.80;99.90;;;;;;5071752;28;20013;-71
2021/01/04 13:35:20;;;;;;;21.33;14.05;;;2.70;99.90;;;;;;5074498;28;20025;-71
2021/01/04 13:37:46;;;;;;;19.08;12.30;;;2.70;99.90;;;;;;5056016;28;20020;-71
2021/01/04 13:40:13;;;;;;;21.52;13.13;;;2.70;99.90;;;;;;5073203;28;20452;-71
2021/01/04 13:42:38;;;;;;;19.75;12.43;;;2.70;99.90;;;;;;5074331;28;20086;-71
2021/01/04 13:45:05;;;;;;;16.73;11.27;;;2.70;99.90;;;;;;5072851;28;20453;-71
2021/01/04 13:47:30;;;;;;;21.60;12.77;;;2.70;99.90;;;;;;5073934;28;20072;-71
2021/01/04 13:49:56;;;;;;;19.30;11.98;;;2.70;99.90;;;;;;5072478;28;20024;-71
2021/01/04 13:52:23;;;;;;;21.35;13.85;;;2.70;99.90;;;;;;5073139;28;20020;-71
2021/01/04 13:54:48;;;;;;;21.95;13.98;;;2.70;99.90;;;;;;5074153;28;20021;-71
2021/01/04 13:57:15;;;;;;;21.48;12.07;;;2.70;99.90;;;;;;5072458;28;20486;-71
2021/01/04 13:59:41;;;;;;;19.63;13.32;;;2.70;99.90;;;;;;5073682;28;20023;-71
2021/01/04 14:02:08;;;;;;;20.05;12.57;;;2.70;99.90;;;;;;5073351;28;20373;-71
2021/01/04 14:04:34;;;;;;;18.55;12.35;;;2.70;99.90;;;;;;5073616;28;20020;-71